Birkerod, Denmark
Current Conditions -  °F | °C
As of 3:20 PM on Sunday 23 Nov 2014 (Local Time) from EKCH Reporting Station
Broken Clouds Broken Clouds  
Wind Chill: 38°   Ceiling: 1200
Heat Index: 46°   Visibility: 4mi
Dew Point: 43°   Wind: 25mph
Humidity: 87%   Direction: 130°SE
Pressure: 30.15"   Gusts: NA
Location:  55.83°N, 12.43°E
Report Text: EKCH 231420Z 13022KT 6000 FEW010 BKN012 08/06 Q1021 NOSIG
Loading
Personal Weather Stations






























Interactive Weather Map New forecast layout! Learn more

10-Day Weather Forecast

Advertisements
Track Severe Weather on mobile